Time;durP1;ratioP1;P1;durP2;ratioP2;P2;SDS_P1;SDS_P2;PMS_P1;PMS_P2;Temp;Humidity;BMP_temperature;BMP_pressure;BME280_temperature;BME280_humidity;BME280_pressure;Samples;Min_cycle;Max_cycle;Signal;HPM_P1;HPM_P2
2022/03/14 00:01:53;;;;;;;15.63;8.68;;;9.20;55.20;;;;;;5090622;28;20413;-80
2022/03/14 00:04:19;;;;;;;12.15;8.18;;;9.10;54.70;;;;;;5090945;28;20130;-80
2022/03/14 00:06:48;;;;;;;10.88;8.52;;;9.10;55.30;;;;;;5074049;28;20046;-80
2022/03/14 00:09:14;;;;;;;13.65;8.63;;;9.10;55.40;;;;;;5091055;28;20062;-80
2022/03/14 00:11:40;;;;;;;12.88;8.32;;;9.10;55.70;;;;;;5109173;28;20534;-80
2022/03/14 00:14:08;;;;;;;10.65;8.15;;;9.10;55.40;;;;;;5090516;28;20052;-80
2022/03/14 00:16:42;;;;;;;11.63;8.38;;;9.10;55.50;;;;;;5103638;27;20055;-80
2022/03/14 00:19:08;;;;;;;12.77;8.90;;;9.10;55.90;;;;;;5132330;27;20078;-80
2022/03/14 00:21:41;;;;;;;10.77;9.05;;;9.10;56.00;;;;;;5115254;27;20341;-80
2022/03/14 00:24:10;;;;;;;10.80;8.30;;;9.10;56.20;;;;;;5115503;27;20058;-80
2022/03/14 00:26:36;;;;;;;11.98;8.88;;;9.10;56.10;;;;;;5133027;27;20043;-80
2022/03/14 00:29:03;;;;;;;11.32;8.98;;;9.10;56.30;;;;;;5114770;27;20099;-81
2022/03/14 00:31:29;;;;;;;14.25;8.85;;;9.10;56.20;;;;;;5097841;27;20096;-80
2022/03/14 00:33:55;;;;;;;11.73;8.25;;;9.10;56.30;;;;;;5114786;27;20050;-80
2022/03/14 00:36:21;;;;;;;14.23;8.80;;;9.10;56.80;;;;;;5131858;27;21082;-80
2022/03/14 00:38:46;;;;;;;14.50;9.05;;;9.10;56.80;;;;;;5114173;27;20051;-80
2022/03/14 00:41:16;;;;;;;12.05;8.68;;;9.20;57.20;;;;;;5133025;27;20050;-80
2022/03/14 00:43:42;;;;;;;13.35;8.75;;;9.20;57.40;;;;;;5131684;27;20050;-80
2022/03/14 00:46:08;;;;;;;12.45;9.20;;;9.20;58.20;;;;;;5114897;27;20425;-81
2022/03/14 00:48:35;;;;;;;13.50;9.85;;;9.20;58.60;;;;;;5114082;27;20117;-80
2022/03/14 00:51:02;;;;;;;14.52;8.88;;;9.20;58.50;;;;;;5114658;27;20043;-80
2022/03/14 00:53:29;;;;;;;13.70;9.48;;;9.20;58.60;;;;;;5097449;27;20043;-81
2022/03/14 00:55:54;;;;;;;12.70;9.55;;;9.20;58.80;;;;;;5131203;27;20039;-80
2022/03/14 00:58:20;;;;;;;12.10;9.23;;;9.20;58.90;;;;;;5114055;27;20471;-81
2022/03/14 01:00:48;;;;;;;13.55;9.90;;;9.20;59.10;;;;;;5097042;27;20774;-81
2022/03/14 01:03:14;;;;;;;13.38;9.43;;;9.20;59.70;;;;;;5114478;27;20058;-80
2022/03/14 01:05:40;;;;;;;13.40;10.07;;;9.10;59.80;;;;;;5113953;27;20688;-80
2022/03/14 01:08:06;;;;;;;15.02;10.05;;;9.10;59.80;;;;;;5097469;27;20124;-80
2022/03/14 01:10:32;;;;;;;13.15;9.60;;;9.00;59.80;;;;;;5114215;27;20515;-80
2022/03/14 01:12:58;;;;;;;14.57;9.52;;;8.90;60.00;;;;;;5114374;27;20064;-80
2022/03/14 01:15:24;;;;;;;11.93;9.02;;;8.90;60.20;;;;;;5132118;27;20039;-80
2022/03/14 01:17:50;;;;;;;11.88;9.32;;;8.80;60.40;;;;;;5114000;27;20096;-80
2022/03/14 01:20:16;;;;;;;13.32;9.35;;;8.80;61.10;;;;;;5131896;27;20051;-80
2022/03/14 01:22:42;;;;;;;14.27;10.20;;;8.70;61.60;;;;;;5113738;27;20513;-80
2022/03/14 01:25:08;;;;;;;15.00;10.23;;;8.70;62.20;;;;;;5097007;27;20069;-80
2022/03/14 01:27:34;;;;;;;13.70;10.35;;;8.60;62.40;;;;;;5113171;27;20047;-80
2022/03/14 01:30:00;;;;;;;14.27;10.25;;;8.50;63.00;;;;;;5113884;27;20108;-80
2022/03/14 01:32:25;;;;;;;13.52;10.98;;;8.40;63.20;;;;;;5113400;27;20636;-80
2022/03/14 01:34:51;;;;;;;14.57;10.63;;;8.40;63.90;;;;;;5113797;27;20497;-80
2022/03/14 01:37:18;;;;;;;14.00;10.50;;;8.40;64.50;;;;;;5131867;27;20423;-81
2022/03/14 01:39:44;;;;;;;13.70;9.60;;;8.30;65.00;;;;;;5112811;27;20077;-80
2022/03/14 01:42:20;;;;;;;15.02;10.48;;;8.30;65.20;;;;;;5113593;27;20035;-81
2022/03/14 01:44:46;;;;;;;14.15;10.38;;;8.20;65.20;;;;;;5113427;27;20039;-80
2022/03/14 01:47:14;;;;;;;14.13;10.48;;;8.20;65.70;;;;;;5096447;27;20129;-81
2022/03/14 01:49:41;;;;;;;11.82;9.35;;;8.20;65.50;;;;;;5131112;27;20043;-80
2022/03/14 01:52:07;;;;;;;12.23;9.70;;;8.20;65.70;;;;;;5131945;27;20079;-80
2022/03/14 01:54:34;;;;;;;15.05;10.65;;;8.10;65.70;;;;;;5113410;27;20039;-80
2022/03/14 01:56:59;;;;;;;16.55;11.15;;;8.10;66.30;;;;;;5112779;27;20104;-81
2022/03/14 01:59:26;;;;;;;12.77;10.32;;;8.10;66.50;;;;;;5112903;27;20039;-80
2022/03/14 02:01:52;;;;;;;13.65;9.68;;;8.10;67.00;;;;;;5113043;27;20047;-81
2022/03/14 02:04:18;;;;;;;14.18;10.73;;;8.10;67.50;;;;;;5113566;27;20062;-81
2022/03/14 02:06:45;;;;;;;14.60;10.70;;;8.20;67.90;;;;;;5113250;27;20078;-80
2022/03/14 02:09:11;;;;;;;13.80;10.65;;;8.20;67.70;;;;;;5095668;27;20051;-81
2022/03/14 02:11:37;;;;;;;15.02;10.88;;;8.30;68.00;;;;;;5131491;27;20417;-80
2022/03/14 02:14:06;;;;;;;14.70;10.75;;;8.30;68.20;;;;;;5131304;27;20039;-81
2022/03/14 02:16:31;;;;;;;14.38;10.50;;;8.30;68.40;;;;;;5112442;27;20527;-80
2022/03/14 02:18:57;;;;;;;13.70;10.30;;;8.30;68.90;;;;;;5131139;27;20055;-80
2022/03/14 02:21:23;;;;;;;13.50;10.75;;;8.30;68.90;;;;;;5112451;27;20038;-81
2022/03/14 02:23:48;;;;;;;18.73;11.52;;;8.40;69.20;;;;;;5095222;27;20089;-81
2022/03/14 02:26:14;;;;;;;14.73;11.07;;;8.40;69.50;;;;;;5112642;27;20039;-81
2022/03/14 02:28:39;;;;;;;13.63;10.73;;;8.40;69.80;;;;;;5112880;27;20050;-81
2022/03/14 02:31:06;;;;;;;13.27;10.65;;;8.40;70.10;;;;;;5112599;27;20046;-81
2022/03/14 02:33:32;;;;;;;14.73;11.38;;;8.40;69.90;;;;;;5112090;27;20046;-80
2022/03/14 02:35:58;;;;;;;14.00;10.48;;;8.40;70.00;;;;;;5112158;27;20046;-81
2022/03/14 02:38:24;;;;;;;13.43;10.40;;;8.40;70.80;;;;;;5094797;27;20039;-80
2022/03/14 02:40:50;;;;;;;13.27;10.02;;;8.30;70.50;;;;;;5095376;27;20047;-81
2022/03/14 02:43:24;;;;;;;13.43;10.18;;;8.30;70.50;;;;;;5112369;27;20061;-81
2022/03/14 02:45:51;;;;;;;14.27;10.73;;;8.30;71.00;;;;;;5130389;27;20051;-81
2022/03/14 02:48:17;;;;;;;17.13;11.20;;;8.30;71.20;;;;;;5111815;27;20043;-80
2022/03/14 02:50:43;;;;;;;15.23;10.88;;;8.30;71.20;;;;;;5127168;27;20078;-81
2022/03/14 02:53:13;;;;;;;12.93;10.02;;;8.30;71.90;;;;;;5131917;27;20042;-80
2022/03/14 02:55:39;;;;;;;13.98;9.52;;;8.30;72.40;;;;;;5131471;27;20047;-80
2022/03/14 02:58:06;;;;;;;13.25;9.82;;;8.30;72.40;;;;;;5131218;27;20569;-81
2022/03/14 03:00:35;;;;;;;14.98;11.35;;;8.30;72.40;;;;;;5147286;27;20050;-81
2022/03/14 03:03:04;;;;;;;13.27;10.15;;;8.30;72.80;;;;;;5115837;27;20043;-81
2022/03/14 03:05:31;;;;;;;12.95;10.02;;;8.30;73.30;;;;;;5094559;27;20096;-81
2022/03/14 03:08:00;;;;;;;15.25;10.65;;;8.30;72.90;;;;;;5131668;27;20050;-81
2022/03/14 03:10:29;;;;;;;15.80;11.30;;;8.30;73.10;;;;;;5131662;27;20045;-80
2022/03/14 03:12:55;;;;;;;15.60;10.90;;;8.30;72.90;;;;;;5150049;27;20134;-81
2022/03/14 03:15:22;;;;;;;14.82;10.52;;;8.30;72.90;;;;;;5131093;27;20125;-81
2022/03/14 03:17:47;;;;;;;15.13;10.45;;;8.40;73.20;;;;;;5131382;27;20050;-81
2022/03/14 03:20:14;;;;;;;12.57;10.52;;;8.40;73.20;;;;;;5131540;27;20047;-81
2022/03/14 03:22:40;;;;;;;13.27;10.30;;;8.40;73.40;;;;;;5150178;27;20054;-80
2022/03/14 03:25:06;;;;;;;14.57;10.52;;;8.40;73.60;;;;;;5131461;27;20042;-81
2022/03/14 03:27:32;;;;;;;14.63;11.02;;;8.40;73.60;;;;;;5114985;27;20053;-81
2022/03/14 03:29:59;;;;;;;14.07;10.63;;;8.40;73.50;;;;;;5132389;27;20046;-81
2022/03/14 03:32:25;;;;;;;14.40;10.93;;;8.40;73.40;;;;;;5150654;27;20035;-81
2022/03/14 03:34:50;;;;;;;16.33;12.27;;;8.40;73.20;;;;;;5114821;27;20091;-81
2022/03/14 03:37:16;;;;;;;14.10;11.60;;;8.40;73.40;;;;;;5132096;27;20039;-81
2022/03/14 03:39:42;;;;;;;16.55;12.20;;;8.40;73.20;;;;;;5150751;27;20496;-81
2022/03/14 03:42:07;;;;;;;15.93;10.88;;;8.40;73.30;;;;;;5132190;27;21117;-81
2022/03/14 03:44:34;;;;;;;13.88;10.63;;;8.40;73.50;;;;;;5131688;27;20039;-81
2022/03/14 03:47:00;;;;;;;16.13;11.38;;;8.50;73.90;;;;;;5132092;27;20047;-81
2022/03/14 03:49:26;;;;;;;16.05;11.07;;;8.50;74.10;;;;;;5132806;27;20046;-81
2022/03/14 03:51:52;;;;;;;14.13;11.30;;;8.50;74.10;;;;;;5136271;27;20059;-81
2022/03/14 03:54:18;;;;;;;16.17;10.80;;;8.50;74.30;;;;;;5154792;27;20149;-81
2022/03/14 03:56:43;;;;;;;15.32;10.65;;;8.50;74.70;;;;;;5136026;27;20098;-81
2022/03/14 03:59:09;;;;;;;15.63;11.90;;;8.50;75.00;;;;;;5154520;27;20049;-81
2022/03/14 04:01:36;;;;;;;13.98;10.45;;;8.50;75.30;;;;;;5136271;27;20039;-80
2022/03/14 04:04:02;;;;;;;15.23;11.32;;;8.50;75.80;;;;;;5136092;27;20106;-81
2022/03/14 04:06:30;;;;;;;14.45;10.85;;;8.50;75.70;;;;;;5135692;27;20287;-81
2022/03/14 04:08:56;;;;;;;15.75;10.60;;;8.50;75.80;;;;;;5135707;27;20087;-81
2022/03/14 04:11:23;;;;;;;13.63;10.35;;;8.50;76.20;;;;;;5135821;27;20702;-81
2022/03/14 04:13:51;;;;;;;14.63;10.50;;;8.50;76.60;;;;;;5118966;27;20437;-81
2022/03/14 04:16:18;;;;;;;14.43;12.10;;;8.60;76.70;;;;;;5134456;27;20408;-81
2022/03/14 04:18:47;;;;;;;16.23;11.13;;;8.60;76.90;;;;;;5135151;27;20054;-80
2022/03/14 04:21:16;;;;;;;13.20;9.68;;;8.60;77.80;;;;;;5118593;27;20078;-80
2022/03/14 04:23:42;;;;;;;12.93;9.80;;;8.60;77.60;;;;;;5135729;27;20062;-81
2022/03/14 04:26:09;;;;;;;13.57;10.80;;;8.60;78.60;;;;;;5135421;27;20047;-80
2022/03/14 04:28:36;;;;;;;11.95;9.23;;;8.60;78.90;;;;;;5135411;27;20035;-81
2022/03/14 04:31:05;;;;;;;11.32;10.07;;;8.60;78.50;;;;;;5134852;27;20208;-81
2022/03/14 04:33:31;;;;;;;12.75;9.65;;;8.70;78.80;;;;;;5153857;27;20039;-81
2022/03/14 04:35:57;;;;;;;11.40;8.77;;;8.70;78.50;;;;;;5135339;27;20061;-81
2022/03/14 04:38:24;;;;;;;12.07;9.50;;;8.70;78.80;;;;;;5135035;27;20574;-81
2022/03/14 04:40:50;;;;;;;14.25;9.45;;;8.60;79.00;;;;;;5135075;27;20054;-81
2022/03/14 04:43:15;;;;;;;12.25;8.75;;;8.60;79.90;;;;;;5118038;27;20485;-80
2022/03/14 04:45:41;;;;;;;11.57;9.18;;;8.60;79.50;;;;;;5135567;27;20053;-81
2022/03/14 04:48:07;;;;;;;11.02;8.07;;;8.60;79.90;;;;;;5134937;27;20142;-81
2022/03/14 04:50:36;;;;;;;11.88;9.18;;;8.60;80.50;;;;;;5135099;27;20064;-81
2022/03/14 04:53:02;;;;;;;11.13;8.43;;;8.60;80.90;;;;;;5153402;27;20046;-81
2022/03/14 04:55:28;;;;;;;11.32;7.65;;;8.60;81.20;;;;;;5134695;27;20497;-81
2022/03/14 04:57:54;;;;;;;11.50;8.05;;;8.70;81.60;;;;;;5134921;27;20595;-81
2022/03/14 05:00:20;;;;;;;10.27;8.13;;;8.70;81.60;;;;;;5135335;27;20050;-81
2022/03/14 05:02:45;;;;;;;10.98;8.48;;;8.70;81.60;;;;;;5152332;27;20045;-81
2022/03/14 05:05:11;;;;;;;11.38;8.23;;;8.70;81.70;;;;;;5153403;27;20043;-81
2022/03/14 05:07:38;;;;;;;11.82;8.40;;;8.70;82.10;;;;;;5134850;27;20046;-81
2022/03/14 05:10:09;;;;;;;10.00;7.63;;;8.70;81.90;;;;;;5134641;27;20035;-81
2022/03/14 05:12:35;;;;;;;11.52;8.60;;;8.70;82.00;;;;;;5153285;27;20545;-81
2022/03/14 05:15:04;;;;;;;9.18;7.22;;;8.70;82.20;;;;;;5117800;27;20129;-81
2022/03/14 05:17:30;;;;;;;11.23;7.65;;;8.60;82.60;;;;;;5134864;27;20054;-81
2022/03/14 05:19:56;;;;;;;10.88;7.95;;;8.60;82.90;;;;;;5133876;27;20046;-81
2022/03/14 05:22:22;;;;;;;;;;;8.60;83.20;;;;;;5134809;27;20043;-81
2022/03/14 05:24:48;;;;;;;12.23;7.63;;;8.70;83.40;;;;;;5117513;27;19975;-81
2022/03/14 05:27:14;;;;;;;10.63;8.23;;;8.70;83.40;;;;;;5134218;27;20443;-81
2022/03/14 05:29:39;;;;;;;9.60;7.45;;;8.70;83.30;;;;;;5117167;27;20587;-81
2022/03/14 05:32:08;;;;;;;9.43;7.70;;;8.70;83.90;;;;;;5117032;27;20129;-81
2022/03/14 05:34:35;;;;;;;10.40;7.95;;;8.70;84.20;;;;;;5134491;27;20043;-81
2022/03/14 05:37:01;;;;;;;8.77;7.03;;;8.70;84.70;;;;;;5134179;27;20054;-81
2022/03/14 05:39:27;;;;;;;10.45;7.30;;;8.70;85.00;;;;;;5116810;27;20042;-81
2022/03/14 05:41:52;;;;;;;9.50;7.60;;;8.80;85.80;;;;;;5134315;27;20057;-81
2022/03/14 05:44:19;;;;;;;10.10;7.45;;;8.80;86.00;;;;;;5133976;27;20117;-81
2022/03/14 05:46:45;;;;;;;9.00;6.80;;;8.80;86.30;;;;;;5134049;27;20057;-81
2022/03/14 05:49:10;;;;;;;10.15;7.90;;;8.80;86.80;;;;;;5116546;27;20038;-81
2022/03/14 05:51:37;;;;;;;10.32;7.80;;;8.80;87.20;;;;;;5133783;27;20042;-81
2022/03/14 05:54:03;;;;;;;8.25;6.80;;;8.80;87.10;;;;;;5133649;27;20424;-81
2022/03/14 05:56:29;;;;;;;10.23;7.10;;;8.80;87.80;;;;;;5133718;27;20045;-81
2022/03/14 05:58:55;;;;;;;8.30;6.95;;;8.80;88.30;;;;;;5133207;27;20416;-81
2022/03/14 06:01:22;;;;;;;9.00;6.90;;;8.80;89.00;;;;;;5133628;27;20038;-80
2022/03/14 06:03:54;;;;;;;7.55;6.13;;;8.80;89.30;;;;;;5133699;27;20050;-81
2022/03/14 06:06:20;;;;;;;8.18;6.15;;;8.80;90.00;;;;;;5133550;27;20038;-81
2022/03/14 06:08:45;;;;;;;11.43;6.32;;;8.80;90.40;;;;;;5132958;27;20034;-81
2022/03/14 06:11:12;;;;;;;9.10;6.15;;;8.80;91.00;;;;;;5116486;27;20206;-81
2022/03/14 06:13:37;;;;;;;12.07;6.13;;;8.80;91.30;;;;;;5152040;27;20046;-81
2022/03/14 06:16:03;;;;;;;7.38;5.63;;;8.80;91.60;;;;;;5116236;27;20066;-80
2022/03/14 06:18:29;;;;;;;8.25;5.47;;;8.80;91.70;;;;;;5115591;27;20699;-81
2022/03/14 06:20:58;;;;;;;7.95;5.78;;;8.80;92.00;;;;;;5133362;27;20039;-81
2022/03/14 06:23:24;;;;;;;8.75;6.22;;;8.80;91.90;;;;;;5132963;27;20043;-81
2022/03/14 06:25:50;;;;;;;8.32;6.13;;;8.80;92.50;;;;;;5151767;27;20077;-81
2022/03/14 06:28:16;;;;;;;11.05;6.53;;;8.80;92.40;;;;;;5115462;27;20178;-81
2022/03/14 06:30:42;;;;;;;8.40;6.15;;;8.80;92.60;;;;;;5151231;27;20062;-81
2022/03/14 06:33:07;;;;;;;14.13;6.38;;;8.80;92.80;;;;;;5132886;27;20050;-81
2022/03/14 06:35:35;;;;;;;8.48;6.40;;;8.80;92.80;;;;;;5132510;27;20062;-81
2022/03/14 06:38:05;;;;;;;7.93;5.80;;;8.80;93.30;;;;;;5151013;27;20047;-81
2022/03/14 06:40:31;;;;;;;9.25;6.53;;;8.80;93.90;;;;;;5151398;27;20046;-81
2022/03/14 06:42:57;;;;;;;10.80;7.15;;;8.70;94.30;;;;;;5133257;27;20043;-81
2022/03/14 06:45:23;;;;;;;9.27;6.15;;;8.80;94.80;;;;;;5151397;27;20043;-80
2022/03/14 06:47:50;;;;;;;8.85;6.18;;;8.70;94.80;;;;;;5132289;27;20051;-80
2022/03/14 06:50:16;;;;;;;10.43;6.88;;;8.70;95.10;;;;;;5128805;27;20054;-79
2022/03/14 06:52:42;;;;;;;10.05;6.50;;;8.70;95.40;;;;;;5118268;27;20078;-80
2022/03/14 06:55:10;;;;;;;9.73;6.70;;;8.80;95.60;;;;;;5137089;27;20082;-81
2022/03/14 06:57:37;;;;;;;;;;;8.70;96.00;;;;;;5111871;27;20126;-80
2022/03/14 07:00:03;;;;;;;9.52;6.65;;;8.70;96.60;;;;;;5112119;27;19923;-80
2022/03/14 07:02:29;;;;;;;9.98;8.52;;;8.80;97.20;;;;;;5110462;27;21011;-81
2022/03/14 07:04:55;;;;;;;10.75;7.18;;;8.80;97.40;;;;;;5112231;27;20078;-81
2022/03/14 07:07:21;;;;;;;9.13;6.43;;;8.80;97.70;;;;;;5111940;27;20047;-81
2022/03/14 07:09:46;;;;;;;10.30;6.82;;;8.70;97.50;;;;;;5111759;27;20108;-81
2022/03/14 07:12:13;;;;;;;9.13;6.70;;;8.70;98.10;;;;;;5111060;27;20035;-81
2022/03/14 07:14:39;;;;;;;18.25;7.00;;;8.70;98.60;;;;;;5094884;27;20062;-81
2022/03/14 07:17:05;;;;;;;10.18;7.00;;;8.80;98.70;;;;;;5110504;27;20126;-81
2022/03/14 07:19:31;;;;;;;11.93;7.13;;;8.80;99.00;;;;;;5110774;27;20154;-81
2022/03/14 07:21:57;;;;;;;11.05;7.55;;;8.80;99.60;;;;;;5110659;27;20475;-80
2022/03/14 07:24:22;;;;;;;11.13;7.32;;;8.80;99.90;;;;;;5093248;27;20052;-80
2022/03/14 07:26:48;;;;;;;9.85;7.45;;;8.80;99.90;;;;;;5110724;27;20548;-80
2022/03/14 07:29:14;;;;;;;9.43;7.18;;;8.80;99.90;;;;;;5110470;27;20031;-80
2022/03/14 07:31:41;;;;;;;10.20;7.50;;;8.80;99.90;;;;;;5110506;28;20051;-80
2022/03/14 07:34:08;;;;;;;10.18;7.57;;;8.80;99.90;;;;;;5110480;27;20130;-80
2022/03/14 07:36:34;;;;;;;10.45;7.60;;;8.80;99.90;;;;;;5110380;27;20122;-80
2022/03/14 07:39:01;;;;;;;11.40;8.80;;;8.80;99.90;;;;;;5093488;28;20058;-81
2022/03/14 07:41:26;;;;;;;12.38;8.18;;;8.80;99.90;;;;;;5093281;28;20047;-80
2022/03/14 07:43:53;;;;;;;12.45;8.45;;;8.80;99.90;;;;;;5110059;27;20051;-80
2022/03/14 07:46:18;;;;;;;12.60;8.50;;;8.80;99.90;;;;;;5110407;27;20464;-80
2022/03/14 07:48:44;;;;;;;14.88;9.27;;;8.80;99.90;;;;;;5128933;27;20052;-80
2022/03/14 07:51:09;;;;;;;10.45;8.13;;;8.80;99.90;;;;;;5110351;27;20043;-80
2022/03/14 07:53:35;;;;;;;11.57;8.77;;;8.80;99.90;;;;;;5110068;27;20043;-80
2022/03/14 07:56:01;;;;;;;12.45;8.90;;;8.80;99.90;;;;;;5093267;28;20436;-80
2022/03/14 07:58:27;;;;;;;12.93;9.02;;;8.80;99.90;;;;;;5110258;28;20050;-81
2022/03/14 08:00:54;;;;;;;12.43;8.30;;;8.80;99.90;;;;;;5110501;27;20051;-81
2022/03/14 08:03:21;;;;;;;12.88;9.82;;;8.80;99.90;;;;;;5093296;27;20047;-80
2022/03/14 08:05:47;;;;;;;11.43;8.13;;;8.80;99.90;;;;;;5110245;28;20134;-81
2022/03/14 08:08:15;;;;;;;11.60;8.60;;;8.80;99.90;;;;;;5128646;27;20126;-80
2022/03/14 08:10:41;;;;;;;12.45;8.68;;;8.80;99.90;;;;;;5100163;28;20111;-80
2022/03/14 08:13:07;;;;;;;12.00;9.35;;;8.80;99.90;;;;;;5127430;28;20070;-80
2022/03/14 08:15:36;;;;;;;12.65;8.40;;;8.80;99.90;;;;;;5110646;28;20035;-80
2022/03/14 08:18:07;;;;;;;13.32;9.65;;;8.90;99.90;;;;;;5127353;28;20500;-80
2022/03/14 08:20:33;;;;;;;12.50;9.30;;;8.90;99.90;;;;;;5092861;28;20084;-80
2022/03/14 08:23:02;;;;;;;12.65;8.88;;;8.90;99.90;;;;;;5110248;28;20130;-80
2022/03/14 08:25:29;;;;;;;;;;;8.90;99.90;;;;;;5110981;28;20083;-81
2022/03/14 08:27:55;;;;;;;;;;;8.90;99.90;;;;;;5111233;28;20010;-81
2022/03/14 08:30:23;;;;;;;;;;;9.00;99.90;;;;;;5128502;28;20277;-80
2022/03/14 08:32:49;;;;;;;;;;;9.00;99.90;;;;;;5094543;28;19919;-81
2022/03/14 08:35:15;;;;;;;;;;;9.00;99.90;;;;;;5111931;27;19919;-81
2022/03/14 08:37:42;;;;;;;;;;;9.00;99.90;;;;;;5131188;27;19996;-81
2022/03/14 08:40:09;;;;;;;;;;;9.00;99.90;;;;;;5132086;27;20381;-81
2022/03/14 08:42:35;;;;;;;;;;;9.00;99.90;;;;;;5115339;27;20351;-81
2022/03/14 08:45:01;;;;;;;;;;;9.10;99.90;;;;;;5097803;27;19930;-81
2022/03/14 08:47:26;;;;;;;;;;;9.10;99.90;;;;;;5098107;27;19920;-81
2022/03/14 08:49:52;;;;;;;;;;;9.10;99.90;;;;;;5114860;27;20372;-81
2022/03/14 08:52:18;;;;;;;;;;;9.10;99.90;;;;;;5133840;27;20352;-81
2022/03/14 08:54:43;;;;;;;;;;;9.10;99.90;;;;;;5132091;27;20023;-81
2022/03/14 08:57:09;;;;;;;;;;;9.00;99.90;;;;;;5097250;27;20266;-81
2022/03/14 08:59:35;;;;;;;;;;;9.10;99.90;;;;;;5132325;27;19919;-81
2022/03/14 09:02:01;;;;;;;;;;;9.00;99.90;;;;;;5133211;27;19945;-81
2022/03/14 09:04:26;;;;;;;;;;;9.10;99.90;;;;;;5114611;27;19919;-81
2022/03/14 09:06:52;;;;;;;;;;;9.10;99.90;;;;;;5114668;27;19976;-81
2022/03/14 09:09:18;;;;;;;;;;;9.10;99.90;;;;;;5131169;27;19930;-81
2022/03/14 09:11:44;;;;;;;;;;;9.10;99.90;;;;;;5115796;27;19927;-80
2022/03/14 09:14:10;;;;;;;;;;;9.10;99.90;;;;;;5114514;27;19926;-81
2022/03/14 09:16:37;;;;;;;14.90;10.20;;;9.10;99.90;;;;;;5113783;27;19923;-81
2022/03/14 09:19:03;;;;;;;14.48;10.43;;;9.10;99.90;;;;;;5113976;27;20058;-80
2022/03/14 09:21:29;;;;;;;17.77;11.45;;;9.20;99.90;;;;;;5113790;27;20043;-80
2022/03/14 09:23:56;;;;;;;21.52;17.50;;;9.10;99.90;;;;;;5095218;27;20447;-81
2022/03/14 09:26:21;;;;;;;22.15;17.90;;;9.20;99.90;;;;;;5095557;27;20421;-81
2022/03/14 09:28:49;;;;;;;24.57;18.90;;;9.20;99.90;;;;;;5113000;27;20410;-81
2022/03/14 09:31:14;;;;;;;23.92;18.08;;;9.20;99.90;;;;;;5131154;27;20399;-81
2022/03/14 09:33:40;;;;;;;24.07;18.47;;;9.20;99.90;;;;;;5112174;27;20470;-80
2022/03/14 09:36:07;;;;;;;21.95;17.83;;;9.20;99.90;;;;;;5112300;27;20394;-80
2022/03/14 09:38:32;;;;;;;21.35;17.75;;;9.20;99.90;;;;;;5112451;27;20429;-81
2022/03/14 09:41:03;;;;;;;19.70;16.77;;;9.20;99.90;;;;;;5112431;27;20761;-81
2022/03/14 09:43:38;;;;;;;22.17;17.83;;;9.30;99.90;;;;;;5130506;27;20558;-81
2022/03/14 09:46:06;;;;;;;21.27;17.67;;;9.30;99.90;;;;;;5111540;27;20403;-80
2022/03/14 09:48:36;;;;;;;24.55;19.40;;;9.30;99.90;;;;;;5112159;27;20418;-80
2022/03/14 09:51:03;;;;;;;18.70;16.70;;;9.30;99.90;;;;;;5112945;27;20395;-81
2022/03/14 09:53:30;;;;;;;22.50;17.80;;;9.30;99.90;;;;;;5112048;27;20407;-81
2022/03/14 09:55:56;;;;;;;21.80;18.35;;;9.30;99.90;;;;;;5111894;27;20395;-80
2022/03/14 09:58:22;;;;;;;25.92;20.00;;;9.30;99.90;;;;;;5112122;27;20826;-81
2022/03/14 10:00:49;;;;;;;25.13;19.65;;;9.40;99.90;;;;;;5111769;27;20403;-80
2022/03/14 10:03:16;;;;;;;22.60;19.38;;;9.40;99.90;;;;;;5112441;27;20417;-80
2022/03/14 10:05:43;;;;;;;26.17;20.92;;;9.40;99.90;;;;;;5130489;27;20899;-80
2022/03/14 10:08:10;;;;;;;23.65;19.52;;;9.40;99.90;;;;;;5111440;27;20402;-80
2022/03/14 10:10:37;;;;;;;24.60;19.73;;;9.40;99.90;;;;;;5111590;27;20398;-80
2022/03/14 10:13:07;;;;;;;25.13;20.13;;;9.40;99.90;;;;;;5094328;27;20497;-80
2022/03/14 10:15:37;;;;;;;22.85;19.52;;;9.50;99.90;;;;;;5111423;27;20407;-80
2022/03/14 10:18:11;;;;;;;25.38;20.05;;;9.50;99.90;;;;;;5111262;27;20506;-80
2022/03/14 10:20:53;;;;;;;26.33;21.15;;;9.50;99.90;;;;;;5129974;27;20455;-80
2022/03/14 10:23:37;;;;;;;27.03;21.63;;;9.50;99.90;;;;;;5111308;27;20477;-80
2022/03/14 10:26:06;;;;;;;28.63;22.33;;;9.50;99.90;;;;;;5111457;27;20485;-80
2022/03/14 10:28:35;;;;;;;25.13;21.00;;;9.50;99.90;;;;;;5094648;27;20647;-80
2022/03/14 10:31:02;;;;;;;26.48;21.42;;;9.60;99.90;;;;;;5111512;27;20906;-80
2022/03/14 10:33:30;;;;;;;23.50;19.92;;;9.60;99.90;;;;;;5129220;27;20405;-80
2022/03/14 10:35:57;;;;;;;27.15;22.13;;;9.60;99.90;;;;;;5111118;27;20394;-80
2022/03/14 10:38:24;;;;;;;30.05;23.73;;;9.50;99.90;;;;;;5111166;27;20480;-80
2022/03/14 10:40:51;;;;;;;26.70;22.20;;;9.60;99.90;;;;;;5094215;27;20434;-81
2022/03/14 10:43:31;;;;;;;26.95;22.60;;;9.50;99.90;;;;;;5111183;27;20391;-81
2022/03/14 10:45:59;;;;;;;30.70;24.35;;;9.50;99.90;;;;;;5094300;27;20407;-81
2022/03/14 10:48:41;;;;;;;29.13;23.50;;;9.50;99.90;;;;;;5110484;27;20402;-81
2022/03/14 10:51:12;;;;;;;29.93;23.93;;;9.60;99.90;;;;;;5110699;27;20459;-81
2022/03/14 10:53:46;;;;;;;30.20;24.27;;;9.60;99.90;;;;;;5094244;27;20403;-81
2022/03/14 10:56:13;;;;;;;27.48;23.15;;;9.60;99.90;;;;;;5110949;27;20430;-81
2022/03/14 10:58:39;;;;;;;28.93;23.40;;;9.60;99.90;;;;;;5093329;27;20434;-81
2022/03/14 11:01:10;;;;;;;33.77;25.40;;;9.60;99.90;;;;;;5110659;27;20415;-81
2022/03/14 11:03:39;;;;;;;34.75;25.77;;;9.60;99.90;;;;;;5093773;27;20988;-81
2022/03/14 11:06:07;;;;;;;32.97;26.25;;;9.60;99.90;;;;;;5093818;27;20422;-81
2022/03/14 11:08:53;;;;;;;32.78;25.98;;;9.60;99.90;;;;;;5110465;27;20892;-80
2022/03/14 11:11:22;;;;;;;29.63;23.02;;;9.50;99.90;;;;;;5128205;27;20506;-81
2022/03/14 11:13:50;;;;;;;33.10;23.87;;;9.50;99.90;;;;;;5109980;27;20899;-80
2022/03/14 11:16:25;;;;;;;34.20;23.60;;;9.50;99.90;;;;;;5128652;27;20508;-80
2022/03/14 11:18:52;;;;;;;34.42;22.65;;;9.40;99.90;;;;;;5093739;27;20525;-80
2022/03/14 11:21:24;;;;;;;30.10;18.95;;;9.40;99.90;;;;;;5077104;27;20588;-81
2022/03/14 11:23:51;;;;;;;36.80;20.17;;;9.40;99.90;;;;;;5110719;27;20407;-80
2022/03/14 11:26:23;;;;;;;33.87;19.80;;;9.30;99.90;;;;;;5111104;27;20502;-81
2022/03/14 11:28:50;;;;;;;30.77;18.53;;;9.40;99.90;;;;;;5093589;27;20471;-81
2022/03/14 11:31:20;;;;;;;32.88;18.38;;;9.40;99.90;;;;;;5128448;27;20503;-81
2022/03/14 11:33:47;;;;;;;38.97;19.92;;;9.30;99.90;;;;;;5093351;28;20451;-81
2022/03/14 11:36:17;;;;;;;30.58;18.52;;;9.40;99.90;;;;;;5127932;27;20402;-81
2022/03/14 11:38:43;;;;;;;32.72;18.13;;;9.40;99.90;;;;;;5109714;27;20506;-81
2022/03/14 11:41:10;;;;;;;32.53;17.92;;;9.40;99.90;;;;;;5093526;27;20438;-80
2022/03/14 11:43:38;;;;;;;33.27;16.87;;;9.40;99.90;;;;;;5110695;28;21014;-80
2022/03/14 11:46:03;;;;;;;32.83;16.92;;;9.40;99.90;;;;;;5109959;27;20434;-80
2022/03/14 11:48:32;;;;;;;33.93;15.77;;;9.40;99.90;;;;;;5110157;27;20836;-81
2022/03/14 11:51:01;;;;;;;28.02;15.02;;;9.40;99.90;;;;;;5128700;27;20462;-80
2022/03/14 11:53:29;;;;;;;27.77;13.57;;;9.40;99.90;;;;;;5092814;27;20893;-80
2022/03/14 11:56:05;;;;;;;31.20;14.30;;;9.40;99.90;;;;;;5092956;27;20528;-80
2022/03/14 11:58:34;;;;;;;27.52;13.30;;;9.40;99.90;;;;;;5093149;27;20881;-80
2022/03/14 12:01:12;;;;;;;25.75;12.38;;;9.40;99.90;;;;;;5092896;27;20421;-81
2022/03/14 12:03:43;;;;;;;27.42;13.43;;;9.40;99.90;;;;;;5110319;27;20402;-81
2022/03/14 12:06:09;;;;;;;27.45;12.55;;;9.40;99.90;;;;;;5109752;27;20487;-81
2022/03/14 12:08:34;;;;;;;24.40;12.73;;;9.40;99.90;;;;;;5128098;27;20469;-80
2022/03/14 12:11:37;;;;;;;26.95;11.88;;;9.40;99.90;;;;;;5111699;27;20494;-81
2022/03/14 12:14:08;;;;;;;24.67;12.40;;;9.50;99.90;;;;;;5113981;27;20410;-81
2022/03/14 12:16:34;;;;;;;25.17;12.45;;;9.50;99.90;;;;;;5132041;27;20394;-80
2022/03/14 12:19:00;;;;;;;28.57;13.17;;;9.50;99.90;;;;;;5113871;27;20479;-80
2022/03/14 12:21:46;;;;;;;31.00;13.38;;;9.50;99.90;;;;;;5113604;27;20433;-81
2022/03/14 12:24:37;;;;;;;29.07;13.63;;;9.50;99.90;;;;;;5113527;27;20399;-80
2022/03/14 12:27:19;;;;;;;29.35;14.25;;;9.50;99.90;;;;;;5096340;27;20878;-80
2022/03/14 12:29:47;;;;;;;35.42;15.85;;;9.50;99.90;;;;;;5113681;27;20860;-80
2022/03/14 12:32:33;;;;;;;37.55;16.92;;;9.50;99.90;;;;;;5131787;27;20761;-81
2022/03/14 12:35:06;;;;;;;31.10;15.48;;;9.50;99.90;;;;;;5095949;27;20773;-81
2022/03/14 12:37:35;;;;;;;30.58;15.43;;;9.50;99.90;;;;;;5113164;27;20430;-81
2022/03/14 12:40:21;;;;;;;31.55;16.08;;;9.60;99.90;;;;;;5131591;27;20402;-79
2022/03/14 12:42:53;;;;;;;29.67;15.20;;;9.60;99.90;;;;;;5102233;27;20403;-80
2022/03/14 12:45:22;;;;;;;34.90;16.00;;;9.60;99.90;;;;;;5112439;27;20406;-79
2022/03/14 12:47:53;;;;;;;31.92;16.15;;;9.60;99.90;;;;;;5131428;27;20413;-80
2022/03/14 12:50:50;;;;;;;31.38;16.40;;;9.60;99.90;;;;;;5096391;27;20398;-80
2022/03/14 12:53:27;;;;;;;31.77;16.65;;;9.70;99.90;;;;;;5112760;27;20406;-80